Flight Track Log - Related Links

Times and Time Zones

All times are in EDT time to prevent confusion due to time zone crossing. See the SKW6345 flight status page for this flight to view local times or setup timezone preferences in your user account.

Time Position Orientation Groundspeed Altitude Reporting Facility
EDT Latitude Longitude Course Direction KTS MPH feet Rate Location/Type
Sat 02:07:00 PM 45.4528 -111.6945 230° Southwest  Level Estimated
Sat 02:08:00 PM 45.3875 -111.8023 229° Southwest  Level Estimated
Sat 02:09:00 PM 45.3221 -111.9098 229° Southwest  Level Estimated
Sat 02:10:00 PM 45.2566 -112.0170 229° Southwest  Level Estimated
Sat 02:11:00 PM 45.1911 -112.1240 229° Southwest  Level Estimated
Sat 02:12:00 PM 45.1254 -112.2308 229° Southwest  Level Estimated
Sat 02:13:00 PM 45.0596 -112.3373 229° Southwest  Level Estimated
Sat 02:13:31 PM 45.7264 -111.1275 228° Southwest 218 251 6,200  Level Salt Lake Center
Sat 02:14:00 PM 44.9821 -112.4624 229° Southwest  Level Estimated
Sat 02:14:33 PM 45.6997 -111.2361 251° West 244 281 8,600  Level Salt Lake Center
Sat 02:15:00 PM 44.9044 -112.5872 229° Southwest  Level Estimated
Sat 02:15:35 PM 45.7142 -111.3453 281° West 266 306 10,700  Level Salt Lake Center
Sat 02:16:00 PM 44.8265 -112.7116 229° Southwest  Level Estimated
Sat 02:16:37 PM 45.7117 -111.4525 268° West 276 318 12,500  Level Salt Lake Center
Sat 02:17:00 PM 44.7486 -112.8356 229° Southwest  Level Estimated
Sat 02:17:39 PM 45.6600 -111.5344 228° Southwest 280 322 14,000  Level Salt Lake Center
Sat 02:18:00 PM 44.6705 -112.9594 228° Southwest  Level Estimated
Sat 02:18:41 PM 45.6047 -111.6197 227° Southwest 288 331 15,200  Level Salt Lake Center
Sat 02:19:43 PM 45.5458 -111.7125 228° Southwest 308 354 16,700 1,200 Climbing Salt Lake Center
Sat 02:20:46 PM 45.4856 -111.8039 227° Southwest 315 362 17,700 1,113 Climbing Salt Lake Center
Sat 02:21:47 PM 45.4114 -111.9164 227° Southwest 324 373 19,000 1,268 Climbing Salt Lake Center
Sat 02:22:49 PM 45.3489 -112.0117 227° Southwest 327 376 20,300 1,113 Climbing Salt Lake Center
Sat 02:23:51 PM 45.2892 -112.1008 226° Southwest 332 382 21,300 968 Climbing Salt Lake Center
Sat 02:24:53 PM 45.2178 -112.2086 227° Southwest 335 386 22,300 864 Climbing Salt Lake Center
Sat 02:25:56 PM 45.1547 -112.3042 227° Southwest 343 395 23,100 1,008 Climbing Salt Lake Center
Sat 02:26:58 PM 45.0817 -112.4139 227° Southwest 344 396 24,400 919 Climbing Salt Lake Center
Sat 02:28:00 PM 45.0183 -112.5072 226° Southwest 345 397 25,000 629 Climbing Salt Lake Center
Sat 02:29:02 PM 44.9447 -112.6172 227° Southwest 346 398 25,700 532 Climbing Salt Lake Center
Sat 02:30:04 PM 44.8792 -112.7133 226° Southwest 353 406 26,100 484 Climbing Salt Lake Center
Sat 02:31:06 PM 44.8011 -112.8247 225° Southwest 358 412 26,700 532 Climbing Salt Lake Center
Sat 02:32:08 PM 44.7367 -112.9219 227° Southwest 357 411 27,200 387 Climbing Salt Lake Center
Sat 02:33:10 PM 44.6597 -113.0347 226° Southwest 358 412 27,500 484 Climbing Salt Lake Center
Sat 02:34:12 PM 44.5922 -113.1328 226° Southwest 363 418 28,200 677 Climbing Salt Lake Center
Sat 02:35:14 PM 44.5144 -113.2442 226° Southwest 358 412 28,900 581 Climbing Salt Lake Center
Sat 02:36:16 PM 44.4494 -113.3389 226° Southwest 354 407 29,400 484 Climbing Salt Lake Center
Sat 02:37:18 PM 44.3725 -113.4483 225° Southwest 352 405 29,900 339 Climbing Salt Lake Center
Sat 02:38:20 PM 44.3067 -113.5408 225° Southwest 352 405 30,100 484 Climbing Salt Lake Center
Sat 02:39:22 PM 44.2311 -113.6503 226° Southwest 350 403 30,900 532 Climbing Salt Lake Center
Sat 02:40:24 PM 44.1675 -113.7431 226° Southwest 347 399 31,200 387 Climbing Salt Lake Center
Sat 02:41:26 PM 44.0928 -113.8494 226° Southwest 344 396 31,700 387 Climbing Salt Lake Center
Sat 02:42:28 PM 44.0261 -113.9447 226° Southwest 341 392 32,000 145 Climbing Salt Lake Center
Sat 02:43:30 PM 43.9572 -114.0400 225° Southwest 357 411 32,000  Level Salt Lake Center
Sat 02:44:32 PM 43.8797 -114.1483 225° Southwest 355 409 32,000  Level Salt Lake Center
Sat 02:45:34 PM 43.8114 -114.2444 225° Southwest 363 418 32,000  Level Salt Lake Center
Sat 02:46:36 PM 43.7314 -114.3561 225° Southwest 367 422 32,000  Level Salt Lake Center
Sat 02:47:38 PM 43.6619 -114.4519 225° Southwest 367 422 32,000  Level Salt Lake Center
Sat 02:48:40 PM 43.5922 -114.5483 225° Southwest 370 426 32,000  Level Salt Lake Center
Sat 02:49:42 PM 43.5111 -114.6606 225° Southwest 371 427 32,000  Level Salt Lake Center
Sat 02:50:44 PM 43.4408 -114.7564 225° Southwest 370 426 32,000  Level Salt Lake Center
Sat 02:51:46 PM 43.3583 -114.8692 225° Southwest 373 429 32,000  Level Salt Lake Center
Sat 02:52:48 PM 43.2886 -114.9636 225° Southwest 369 425 32,000  Level Salt Lake Center
Sat 02:53:51 PM 43.2053 -115.0772 225° Southwest 375 432 32,000  Level Salt Lake Center
Sat 02:54:52 PM 43.1328 -115.1767 225° Southwest 381 438 32,000  Level Salt Lake Center
Sat 02:55:54 PM 43.0492 -115.2892 225° Southwest 376 433 32,000  Level Salt Lake Center
Sat 02:56:56 PM 42.9769 -115.3844 224° Southwest 376 433 32,000  Level Salt Lake Center
Sat 02:57:59 PM 42.8919 -115.4975 224° Southwest 381 438 32,000  Level Salt Lake Center
Sat 02:59:01 PM 42.8203 -115.5936 225° Southwest 378 435 32,000  Level Salt Lake Center
Sat 03:00:03 PM 42.7483 -115.6903 225° Southwest 378 435 32,000  Level Salt Lake Center
Sat 03:01:05 PM 42.6633 -115.8017 224° Southwest 378 435 32,000  Level Salt Lake Center
Sat 03:02:07 PM 42.5908 -115.8975 224° Southwest 379 436 32,000  Level Salt Lake Center
Sat 03:03:09 PM 42.5053 -116.0092 224° Southwest 381 438 32,000  Level Salt Lake Center
Sat 03:04:11 PM 42.4322 -116.1050 224° Southwest 383 441 32,000  Level Salt Lake Center
Sat 03:05:13 PM 42.3475 -116.2164 224° Southwest 380 437 32,000  Level Salt Lake Center
Sat 03:06:15 PM 42.2733 -116.3119 224° Southwest 383 441 32,000  Level Salt Lake Center
Sat 03:07:17 PM 42.1872 -116.4231 224° Southwest 383 441 32,000  Level Salt Lake Center
Sat 03:08:19 PM 42.1128 -116.5183 224° Southwest 384 442 32,000  Level Salt Lake Center
Sat 03:09:21 PM 42.0264 -116.6294 224° Southwest 385 443 32,000  Level Salt Lake Center
Sat 03:10:23 PM 41.9581 -116.7178 224° Southwest 387 445 32,000  Level Salt Lake Center
Sat 03:11:25 PM 41.8722 -116.8281 224° Southwest 384 442 32,000  Level Salt Lake Center
Sat 03:12:27 PM 41.7981 -116.9222 223° Southwest 383 441 32,000  Level Salt Lake Center
Sat 03:13:29 PM 41.7119 -117.0300 223° Southwest 379 436 32,000  Level Salt Lake Center
Sat 03:14:31 PM 41.6372 -117.1233 223° Southwest 383 441 32,000  Level Salt Lake Center
Sat 03:15:33 PM 41.5506 -117.2342 224° Southwest 386 444 32,000  Level Salt Lake Center
Sat 03:16:36 PM 41.4744 -117.3281 223° Southwest 388 447 32,000  Level Salt Lake Center
Sat 03:17:37 PM 41.3867 -117.4383 223° Southwest 389 448 32,000  Level Salt Lake Center
Sat 03:18:39 PM 41.3111 -117.5328 223° Southwest 390 449 32,000  Level Salt Lake Center
Sat 03:19:41 PM 41.2236 -117.6406 223° Southwest 387 445 32,000  Level Salt Lake Center
Sat 03:21:45 PM 41.0583 -117.8450 223° Southwest 392 451 32,000  Level Salt Lake Center
Sat 03:22:47 PM 40.9819 -117.9392 223° Southwest 392 451 32,000  Level Salt Lake Center
Sat 03:23:49 PM 40.8917 -118.0478 222° Southwest 392 451 32,000  Level Salt Lake Center
Sat 03:24:51 PM 40.8175 -118.1456 225° Southwest 393 452 32,000  Level Salt Lake Center
Sat 03:25:53 PM 40.7564 -118.2886 241° Southwest 400 460 32,000  Level Salt Lake Center
Sat 03:26:55 PM 40.7036 -118.4092 240° Southwest 396 456 32,000  Level Salt Lake Center
Sat 03:27:57 PM 40.6436 -118.5511 241° Southwest 398 458 32,000  Level Salt Lake Center
Sat 03:28:59 PM 40.5914 -118.6728 241° Southwest 398 458 32,000  Level Salt Lake Center
Sat 03:30:02 PM 40.5317 -118.8144 241° Southwest 398 458 32,000  Level Salt Lake Center
Sat 03:31:04 PM 40.4797 -118.9367 241° Southwest 400 460 32,000  Level Salt Lake Center
Sat 03:32:06 PM 40.4189 -119.0769 240° Southwest 401 461 32,000  Level Salt Lake Center
Sat 03:33:12 PM 40.3622 -119.2058 240° Southwest 405 466 32,000  Level Oakland Center
Sat 03:34:13 PM 40.3058 -119.3331 240° Southwest 406 467 32,000  Level Oakland Center
Sat 03:35:15 PM 40.2494 -119.4606 240° Southwest 407 468 32,000 -537 Level Oakland Center
Sat 03:36:16 PM 40.1803 -119.6158 240° Southwest 413 475 30,900 -976 Descending Oakland Center
Sat 03:37:18 PM 40.1206 -119.7517 240° Southwest 428 493 30,000 -439 Descending Oakland Center
Sat 03:38:19 PM 40.0622 -119.8833 240° Southwest 422 486 30,000  Level Oakland Center
Sat 03:39:21 PM 40.0042 -120.0125 240° Southwest 415 478 30,000  Level Oakland Center
Sat 03:40:22 PM 39.9303 -120.1419 233° Southwest 414 476 30,000  Level Oakland Center
Sat 03:41:24 PM 39.8556 -120.2575 230° Southwest 417 480 30,000  Level Oakland Center
Sat 03:42:26 PM 39.7811 -120.3722 230° Southwest 416 479 30,000  Level Oakland Center
Sat 03:43:27 PM 39.7056 -120.4867 229° Southwest 417 480 30,000  Level Oakland Center
Sat 03:44:29 PM 39.6292 -120.6014 229° Southwest 419 482 30,000  Level Oakland Center
Sat 03:45:30 PM 39.5536 -120.7158 229° Southwest 418 481 30,000  Level Oakland Center
Sat 03:46:32 PM 39.4781 -120.8317 230° Southwest 422 486 30,000  Level Oakland Center
Sat 03:47:33 PM 39.3856 -120.9681 229° Southwest 421 484 30,000  Level Oakland Center
Sat 03:48:35 PM 39.3083 -121.0836 229° Southwest 423 487 30,000  Level Oakland Center
Sat 03:49:37 PM 39.2314 -121.1997 229° Southwest 426 490 30,000  Level Oakland Center
Sat 03:50:38 PM 39.1531 -121.3150 229° Southwest 429 494 30,000  Level Oakland Center
Sat 03:51:40 PM 39.0758 -121.4303 229° Southwest 427 491 30,000  Level Oakland Center
Sat 03:52:41 PM 38.9975 -121.5450 229° Southwest 428 493 30,000  Level Oakland Center
Sat 03:53:43 PM 38.9194 -121.6611 229° Southwest 431 496 30,000  Level Oakland Center
Sat 03:54:44 PM 38.8244 -121.7992 229° Southwest 433 498 30,000 -49 Level Oakland Center
Sat 03:55:46 PM 38.7456 -121.9153 229° Southwest 434 499 29,900 -390 Descending Oakland Center
Sat 03:56:47 PM 38.6736 -122.0164 228° Southwest 434 499 29,200 -829 Descending Oakland Center
Sat 03:57:49 PM 38.5750 -122.1608 229° Southwest 448 516 28,200 -585 Descending Oakland Center
Sat 03:58:50 PM 38.4939 -122.2783 229° Southwest 443 510 28,000 -732 Descending Oakland Center
Sat 03:59:52 PM 38.4125 -122.3950 228° Southwest 442 509 26,700 -1,854 Descending Oakland Center
Sat 04:00:53 PM 38.3328 -122.5111 229° Southwest 439 505 24,200 -2,098 Descending Oakland Center
Sat 04:01:55 PM 38.2558 -122.6197 228° Southwest 418 481 22,400 -2,244 Descending Oakland Center
Sat 04:02:56 PM 38.1789 -122.7286 228° Southwest 418 481 19,600 -2,976 Descending Oakland Center
Sat 04:03:58 PM 38.0744 -122.8231 215° Southwest 403 464 16,300 -2,927 Descending Oakland Center
Sat 04:04:59 PM 37.9767 -122.7806 161° South 394 453 13,600 -2,488 Descending Oakland Center
Sat 04:06:01 PM 37.8989 -122.6922 138° Southeast 386 444 11,200 -1,333 Descending Oakland Center
Sat 04:06:56 PM 37.8333 -122.6167 138° Southeast 338 389 11,000 -104 Descending Northern Cal TRACON
Sat 04:07:56 PM 37.7667 -122.5333 135° Southeast 292 336 11,000  Level Northern Cal TRACON
Sat 04:08:56 PM 37.7167 -122.4833 142° Southeast 251 289 11,000  Level Northern Cal TRACON
Sat 04:09:56 PM 37.6667 -122.4167 133° Southeast 254 292 11,000 -100 Level Northern Cal TRACON
Sat 04:10:56 PM 37.6000 -122.3667 149° Southeast 257 296 10,800 -800 Descending Northern Cal TRACON
Sat 04:11:56 PM 37.5500 -122.3167 142° Southeast 242 278 9,400 -1,400 Descending Northern Cal TRACON
Sat 04:12:56 PM 37.4833 -122.2833 158° South 231 266 8,000 -1,252 Descending Northern Cal TRACON
Sat 04:13:51 PM 37.4333 -122.2500 152° Southeast 233 268 7,000 -522 Descending Northern Cal TRACON
Sat 04:14:51 PM 37.3833 -122.2167 152° Southeast 238 274 7,000 -403 Level Northern Cal TRACON
Sat 04:15:50 PM 37.4167 -122.1667 50° Northeast 246 283 6,200 -756 Descending Northern Cal TRACON
Sat 04:16:50 PM 37.4833 -122.1667 360° North 206 237 5,500 -1,041 Descending Northern Cal TRACON
Sat 04:17:51 PM 37.5333 -122.1833 345° North 203 234 4,100 -1,388 Descending Northern Cal TRACON
Sat 04:18:51 PM 37.5667 -122.2500 302° West 197 227 2,700 -1,311 Descending Northern Cal TRACON
Sat 04:19:50 PM 37.5833 -122.3000 293° West 156 180 1,500 -1,160 Descending Northern Cal TRACON
Sat 04:20:50 PM 37.6000 -122.3500 293° West 143 165 400 -1,100 Descending Northern Cal TRACON

Login

Don't have an account? Register now (free) for customized features, flight alerts, and more!